sensor_id;sensor_type;location;lat;lon;timestamp;P1;durP1;ratioP1;P2;durP2;ratioP2
2061;SDS011;11070;51.336;12.340;2023-03-08T00:00:23;5.53;;;4.50;;
2061;SDS011;11070;51.336;12.340;2023-03-08T00:02:49;6.03;;;4.60;;
2061;SDS011;11070;51.336;12.340;2023-03-08T00:05:16;11.18;;;4.72;;
2061;SDS011;11070;51.336;12.340;2023-03-08T00:07:42;7.83;;;5.57;;
2061;SDS011;11070;51.336;12.340;2023-03-08T00:10:08;9.53;;;5.80;;
2061;SDS011;11070;51.336;12.340;2023-03-08T00:12:34;8.70;;;5.93;;
2061;SDS011;11070;51.336;12.340;2023-03-08T00:15:00;8.50;;;5.50;;
2061;SDS011;11070;51.336;12.340;2023-03-08T00:17:29;9.98;;;6.55;;
2061;SDS011;11070;51.336;12.340;2023-03-08T00:19:54;9.70;;;6.30;;
2061;SDS011;11070;51.336;12.340;2023-03-08T00:22:21;12.35;;;6.93;;
2061;SDS011;11070;51.336;12.340;2023-03-08T00:24:47;8.90;;;6.10;;
2061;SDS011;11070;51.336;12.340;2023-03-08T00:27:12;10.43;;;6.40;;
2061;SDS011;11070;51.336;12.340;2023-03-08T00:29:38;13.83;;;7.50;;
2061;SDS011;11070;51.336;12.340;2023-03-08T00:32:04;10.80;;;7.20;;
2061;SDS011;11070;51.336;12.340;2023-03-08T00:34:29;15.33;;;7.47;;
2061;SDS011;11070;51.336;12.340;2023-03-08T00:36:55;12.33;;;7.13;;
2061;SDS011;11070;51.336;12.340;2023-03-08T00:39:21;11.63;;;6.83;;
2061;SDS011;11070;51.336;12.340;2023-03-08T00:41:46;13.37;;;6.60;;
2061;SDS011;11070;51.336;12.340;2023-03-08T00:44:12;11.87;;;6.43;;
2061;SDS011;11070;51.336;12.340;2023-03-08T00:46:38;12.73;;;7.47;;
2061;SDS011;11070;51.336;12.340;2023-03-08T00:49:03;12.03;;;6.73;;
2061;SDS011;11070;51.336;12.340;2023-03-08T00:51:29;12.57;;;7.53;;
2061;SDS011;11070;51.336;12.340;2023-03-08T00:53:55;16.23;;;9.17;;
2061;SDS011;11070;51.336;12.340;2023-03-08T00:56:20;14.83;;;9.00;;
2061;SDS011;11070;51.336;12.340;2023-03-08T00:58:46;16.90;;;8.40;;
2061;SDS011;11070;51.336;12.340;2023-03-08T01:01:13;19.77;;;10.07;;
2061;SDS011;11070;51.336;12.340;2023-03-08T01:03:40;20.38;;;9.93;;
2061;SDS011;11070;51.336;12.340;2023-03-08T01:06:07;18.23;;;9.47;;
2061;SDS011;11070;51.336;12.340;2023-03-08T01:08:35;18.45;;;9.27;;
2061;SDS011;11070;51.336;12.340;2023-03-08T01:11:02;17.95;;;10.40;;
2061;SDS011;11070;51.336;12.340;2023-03-08T01:13:29;19.13;;;9.77;;
2061;SDS011;11070;51.336;12.340;2023-03-08T01:15:57;18.25;;;10.20;;
2061;SDS011;11070;51.336;12.340;2023-03-08T01:18:23;16.55;;;8.95;;
2061;SDS011;11070;51.336;12.340;2023-03-08T01:23:21;15.70;;;9.65;;
2061;SDS011;11070;51.336;12.340;2023-03-08T01:25:47;15.35;;;9.75;;
2061;SDS011;11070;51.336;12.340;2023-03-08T01:28:13;19.53;;;10.23;;
2061;SDS011;11070;51.336;12.340;2023-03-08T01:30:38;19.80;;;10.80;;
2061;SDS011;11070;51.336;12.340;2023-03-08T01:33:04;20.03;;;10.87;;
2061;SDS011;11070;51.336;12.340;2023-03-08T01:35:30;19.20;;;11.50;;
2061;SDS011;11070;51.336;12.340;2023-03-08T01:37:55;19.00;;;11.27;;
2061;SDS011;11070;51.336;12.340;2023-03-08T01:40:21;22.90;;;11.53;;
2061;SDS011;11070;51.336;12.340;2023-03-08T01:42:47;23.13;;;11.10;;
2061;SDS011;11070;51.336;12.340;2023-03-08T01:48:16;20.15;;;10.70;;
2061;SDS011;11070;51.336;12.340;2023-03-08T01:50:44;22.90;;;11.00;;
2061;SDS011;11070;51.336;12.340;2023-03-08T01:53:10;20.90;;;11.07;;
2061;SDS011;11070;51.336;12.340;2023-03-08T01:55:37;19.95;;;11.05;;
2061;SDS011;11070;51.336;12.340;2023-03-08T01:58:03;21.80;;;11.93;;
2061;SDS011;11070;51.336;12.340;2023-03-08T02:00:29;25.63;;;14.57;;
2061;SDS011;11070;51.336;12.340;2023-03-08T02:02:58;25.20;;;13.23;;
2061;SDS011;11070;51.336;12.340;2023-03-08T02:05:26;21.00;;;11.60;;
2061;SDS011;11070;51.336;12.340;2023-03-08T02:07:54;21.08;;;11.20;;
2061;SDS011;11070;51.336;12.340;2023-03-08T02:10:20;18.70;;;11.30;;
2061;SDS011;11070;51.336;12.340;2023-03-08T02:12:50;23.45;;;11.52;;
2061;SDS011;11070;51.336;12.340;2023-03-08T02:15:17;21.35;;;10.55;;
2061;SDS011;11070;51.336;12.340;2023-03-08T02:17:44;20.02;;;11.40;;
2061;SDS011;11070;51.336;12.340;2023-03-08T02:20:18;20.77;;;11.32;;
2061;SDS011;11070;51.336;12.340;2023-03-08T02:23:07;19.67;;;10.82;;
2061;SDS011;11070;51.336;12.340;2023-03-08T02:25:33;23.17;;;11.52;;
2061;SDS011;11070;51.336;12.340;2023-03-08T02:27:58;21.60;;;11.20;;
2061;SDS011;11070;51.336;12.340;2023-03-08T02:30:25;18.17;;;10.33;;
2061;SDS011;11070;51.336;12.340;2023-03-08T02:32:55;18.92;;;9.88;;
2061;SDS011;11070;51.336;12.340;2023-03-08T02:35:21;17.87;;;9.83;;
2061;SDS011;11070;51.336;12.340;2023-03-08T02:37:46;15.60;;;9.40;;
2061;SDS011;11070;51.336;12.340;2023-03-08T02:40:12;17.10;;;9.80;;
2061;SDS011;11070;51.336;12.340;2023-03-08T02:42:38;15.10;;;8.98;;
2061;SDS011;11070;51.336;12.340;2023-03-08T02:45:04;15.10;;;7.90;;
2061;SDS011;11070;51.336;12.340;2023-03-08T02:47:31;10.90;;;6.65;;
2061;SDS011;11070;51.336;12.340;2023-03-08T02:49:57;13.57;;;7.32;;
2061;SDS011;11070;51.336;12.340;2023-03-08T02:52:23;12.70;;;7.53;;
2061;SDS011;11070;51.336;12.340;2023-03-08T02:54:48;10.33;;;6.43;;
2061;SDS011;11070;51.336;12.340;2023-03-08T02:57:14;10.47;;;6.40;;
2061;SDS011;11070;51.336;12.340;2023-03-08T02:59:40;9.80;;;6.60;;
2061;SDS011;11070;51.336;12.340;2023-03-08T03:02:05;11.80;;;7.10;;
2061;SDS011;11070;51.336;12.340;2023-03-08T03:04:32;10.03;;;6.00;;
2061;SDS011;11070;51.336;12.340;2023-03-08T03:06:58;9.85;;;5.72;;
2061;SDS011;11070;51.336;12.340;2023-03-08T03:09:25;7.90;;;5.97;;
2061;SDS011;11070;51.336;12.340;2023-03-08T03:11:51;7.32;;;5.65;;
2061;SDS011;11070;51.336;12.340;2023-03-08T03:14:17;7.50;;;5.47;;
2061;SDS011;11070;51.336;12.340;2023-03-08T03:16:43;6.90;;;5.43;;
2061;SDS011;11070;51.336;12.340;2023-03-08T03:19:10;8.98;;;5.43;;
2061;SDS011;11070;51.336;12.340;2023-03-08T03:21:37;6.97;;;5.30;;
2061;SDS011;11070;51.336;12.340;2023-03-08T03:24:03;9.32;;;5.70;;
2061;SDS011;11070;51.336;12.340;2023-03-08T03:26:29;7.95;;;5.60;;
2061;SDS011;11070;51.336;12.340;2023-03-08T03:28:56;6.67;;;5.10;;
2061;SDS011;11070;51.336;12.340;2023-03-08T03:31:22;7.75;;;5.40;;
2061;SDS011;11070;51.336;12.340;2023-03-08T03:33:49;10.85;;;6.65;;
2061;SDS011;11070;51.336;12.340;2023-03-08T03:36:17;6.78;;;5.10;;
2061;SDS011;11070;51.336;12.340;2023-03-08T03:38:44;7.50;;;5.70;;
2061;SDS011;11070;51.336;12.340;2023-03-08T03:41:11;7.22;;;5.03;;
2061;SDS011;11070;51.336;12.340;2023-03-08T03:43:38;9.98;;;5.10;;
2061;SDS011;11070;51.336;12.340;2023-03-08T03:46:06;7.73;;;5.20;;
2061;SDS011;11070;51.336;12.340;2023-03-08T03:48:33;9.18;;;5.60;;
2061;SDS011;11070;51.336;12.340;2023-03-08T03:51:01;7.25;;;4.90;;
2061;SDS011;11070;51.336;12.340;2023-03-08T03:53:28;6.05;;;4.90;;
2061;SDS011;11070;51.336;12.340;2023-03-08T03:55:55;9.38;;;5.30;;
2061;SDS011;11070;51.336;12.340;2023-03-08T03:58:25;8.63;;;4.85;;
2061;SDS011;11070;51.336;12.340;2023-03-08T04:00:51;7.43;;;5.90;;
2061;SDS011;11070;51.336;12.340;2023-03-08T04:03:17;7.00;;;5.33;;
2061;SDS011;11070;51.336;12.340;2023-03-08T04:05:42;6.73;;;5.43;;
2061;SDS011;11070;51.336;12.340;2023-03-08T04:08:08;7.73;;;4.80;;
2061;SDS011;11070;51.336;12.340;2023-03-08T04:10:36;7.27;;;5.10;;
2061;SDS011;11070;51.336;12.340;2023-03-08T04:13:01;8.25;;;4.85;;
2061;SDS011;11070;51.336;12.340;2023-03-08T04:15:27;6.27;;;4.83;;
2061;SDS011;11070;51.336;12.340;2023-03-08T04:17:53;9.50;;;4.77;;
2061;SDS011;11070;51.336;12.340;2023-03-08T04:20:19;8.43;;;4.80;;
2061;SDS011;11070;51.336;12.340;2023-03-08T04:22:45;7.40;;;5.30;;
2061;SDS011;11070;51.336;12.340;2023-03-08T04:25:10;6.57;;;4.67;;
2061;SDS011;11070;51.336;12.340;2023-03-08T04:27:36;6.90;;;4.70;;
2061;SDS011;11070;51.336;12.340;2023-03-08T04:30:02;6.77;;;4.93;;
2061;SDS011;11070;51.336;12.340;2023-03-08T04:32:29;5.82;;;4.38;;
2061;SDS011;11070;51.336;12.340;2023-03-08T04:34:58;7.20;;;5.82;;
2061;SDS011;11070;51.336;12.340;2023-03-08T04:37:24;8.80;;;5.50;;
2061;SDS011;11070;51.336;12.340;2023-03-08T04:39:50;7.10;;;5.53;;
2061;SDS011;11070;51.336;12.340;2023-03-08T04:42:16;7.87;;;5.03;;
2061;SDS011;11070;51.336;12.340;2023-03-08T04:44:41;8.07;;;5.47;;
2061;SDS011;11070;51.336;12.340;2023-03-08T04:47:07;8.30;;;6.37;;
2061;SDS011;11070;51.336;12.340;2023-03-08T04:49:33;10.98;;;6.70;;
2061;SDS011;11070;51.336;12.340;2023-03-08T04:51:59;9.87;;;6.23;;
2061;SDS011;11070;51.336;12.340;2023-03-08T04:54:24;10.40;;;6.83;;
2061;SDS011;11070;51.336;12.340;2023-03-08T04:56:51;11.48;;;7.50;;
2061;SDS011;11070;51.336;12.340;2023-03-08T04:59:17;11.17;;;6.80;;
2061;SDS011;11070;51.336;12.340;2023-03-08T05:01:43;13.33;;;8.47;;
2061;SDS011;11070;51.336;12.340;2023-03-08T05:04:09;11.23;;;7.43;;
2061;SDS011;11070;51.336;12.340;2023-03-08T05:06:35;13.20;;;7.60;;
2061;SDS011;11070;51.336;12.340;2023-03-08T05:09:01;11.67;;;7.33;;
2061;SDS011;11070;51.336;12.340;2023-03-08T05:11:27;12.18;;;7.80;;
2061;SDS011;11070;51.336;12.340;2023-03-08T05:13:54;14.53;;;7.90;;
2061;SDS011;11070;51.336;12.340;2023-03-08T05:16:21;13.73;;;7.63;;
2061;SDS011;11070;51.336;12.340;2023-03-08T05:18:47;11.60;;;7.30;;
2061;SDS011;11070;51.336;12.340;2023-03-08T05:21:14;13.37;;;8.43;;
2061;SDS011;11070;51.336;12.340;2023-03-08T05:23:42;15.82;;;7.63;;
2061;SDS011;11070;51.336;12.340;2023-03-08T05:26:10;11.77;;;7.77;;
2061;SDS011;11070;51.336;12.340;2023-03-08T05:28:37;12.20;;;8.32;;
2061;SDS011;11070;51.336;12.340;2023-03-08T05:33:33;13.35;;;7.60;;
2061;SDS011;11070;51.336;12.340;2023-03-08T05:36:00;13.38;;;7.93;;
2061;SDS011;11070;51.336;12.340;2023-03-08T05:38:26;11.63;;;7.55;;
2061;SDS011;11070;51.336;12.340;2023-03-08T05:40:52;12.85;;;8.10;;
2061;SDS011;11070;51.336;12.340;2023-03-08T05:43:18;13.10;;;8.10;;
2061;SDS011;11070;51.336;12.340;2023-03-08T05:45:55;18.33;;;10.35;;
2061;SDS011;11070;51.336;12.340;2023-03-08T05:48:24;15.18;;;9.32;;
2061;SDS011;11070;51.336;12.340;2023-03-08T05:50:50;15.75;;;9.00;;
2061;SDS011;11070;51.336;12.340;2023-03-08T05:53:16;18.55;;;9.50;;
2061;SDS011;11070;51.336;12.340;2023-03-08T05:55:42;20.03;;;9.90;;
2061;SDS011;11070;51.336;12.340;2023-03-08T05:58:08;16.43;;;9.87;;
2061;SDS011;11070;51.336;12.340;2023-03-08T06:00:33;17.00;;;10.03;;
2061;SDS011;11070;51.336;12.340;2023-03-08T06:02:59;17.37;;;9.47;;
2061;SDS011;11070;51.336;12.340;2023-03-08T06:05:28;19.20;;;10.00;;
2061;SDS011;11070;51.336;12.340;2023-03-08T06:07:57;20.35;;;10.70;;
2061;SDS011;11070;51.336;12.340;2023-03-08T06:10:23;21.05;;;11.40;;
2061;SDS011;11070;51.336;12.340;2023-03-08T06:12:50;24.27;;;10.65;;
2061;SDS011;11070;51.336;12.340;2023-03-08T06:15:15;19.73;;;11.03;;
2061;SDS011;11070;51.336;12.340;2023-03-08T06:17:41;18.92;;;11.07;;
2061;SDS011;11070;51.336;12.340;2023-03-08T06:20:07;20.37;;;12.30;;
2061;SDS011;11070;51.336;12.340;2023-03-08T06:22:34;17.88;;;10.40;;
2061;SDS011;11070;51.336;12.340;2023-03-08T06:25:00;15.77;;;10.17;;
2061;SDS011;11070;51.336;12.340;2023-03-08T06:27:26;21.23;;;10.65;;
2061;SDS011;11070;51.336;12.340;2023-03-08T06:29:52;17.47;;;11.50;;
2061;SDS011;11070;51.336;12.340;2023-03-08T06:32:17;16.67;;;10.73;;
2061;SDS011;11070;51.336;12.340;2023-03-08T06:34:43;21.07;;;11.10;;
2061;SDS011;11070;51.336;12.340;2023-03-08T06:37:11;16.45;;;10.38;;
2061;SDS011;11070;51.336;12.340;2023-03-08T06:39:36;21.07;;;11.27;;
2061;SDS011;11070;51.336;12.340;2023-03-08T06:42:02;15.73;;;9.83;;
2061;SDS011;11070;51.336;12.340;2023-03-08T06:44:28;18.30;;;10.37;;
2061;SDS011;11070;51.336;12.340;2023-03-08T06:46:54;20.20;;;11.52;;
2061;SDS011;11070;51.336;12.340;2023-03-08T06:49:21;19.95;;;11.00;;
2061;SDS011;11070;51.336;12.340;2023-03-08T06:51:47;18.17;;;10.43;;
2061;SDS011;11070;51.336;12.340;2023-03-08T06:54:13;20.80;;;10.50;;
2061;SDS011;11070;51.336;12.340;2023-03-08T06:56:42;17.90;;;10.32;;
2061;SDS011;11070;51.336;12.340;2023-03-08T06:59:09;17.58;;;9.27;;
2061;SDS011;11070;51.336;12.340;2023-03-08T07:01:35;18.23;;;9.65;;
2061;SDS011;11070;51.336;12.340;2023-03-08T07:04:01;16.97;;;8.97;;
2061;SDS011;11070;51.336;12.340;2023-03-08T07:06:26;14.73;;;9.00;;
2061;SDS011;11070;51.336;12.340;2023-03-08T07:08:52;17.50;;;10.27;;
2061;SDS011;11070;51.336;12.340;2023-03-08T07:11:18;16.73;;;9.90;;
2061;SDS011;11070;51.336;12.340;2023-03-08T07:13:43;19.60;;;11.27;;
2061;SDS011;11070;51.336;12.340;2023-03-08T07:16:10;19.70;;;10.70;;
2061;SDS011;11070;51.336;12.340;2023-03-08T07:18:37;18.38;;;11.38;;
2061;SDS011;11070;51.336;12.340;2023-03-08T07:21:03;19.40;;;11.60;;
2061;SDS011;11070;51.336;12.340;2023-03-08T07:23:29;21.85;;;11.60;;
2061;SDS011;11070;51.336;12.340;2023-03-08T07:25:54;17.27;;;11.17;;
2061;SDS011;11070;51.336;12.340;2023-03-08T07:28:20;18.83;;;10.47;;
2061;SDS011;11070;51.336;12.340;2023-03-08T07:30:47;16.63;;;10.57;;
2061;SDS011;11070;51.336;12.340;2023-03-08T07:33:14;16.35;;;9.88;;
2061;SDS011;11070;51.336;12.340;2023-03-08T07:35:40;14.15;;;8.85;;
2061;SDS011;11070;51.336;12.340;2023-03-08T07:38:06;15.40;;;9.93;;
2061;SDS011;11070;51.336;12.340;2023-03-08T07:40:31;15.83;;;10.10;;
2061;SDS011;11070;51.336;12.340;2023-03-08T07:42:57;18.53;;;10.37;;
2061;SDS011;11070;51.336;12.340;2023-03-08T07:45:24;15.50;;;9.75;;
2061;SDS011;11070;51.336;12.340;2023-03-08T07:47:50;16.97;;;9.57;;
2061;SDS011;11070;51.336;12.340;2023-03-08T07:50:19;17.33;;;10.18;;
2061;SDS011;11070;51.336;12.340;2023-03-08T07:52:45;14.88;;;9.35;;
2061;SDS011;11070;51.336;12.340;2023-03-08T07:55:11;14.83;;;9.00;;
2061;SDS011;11070;51.336;12.340;2023-03-08T07:57:37;16.85;;;9.50;;
2061;SDS011;11070;51.336;12.340;2023-03-08T08:00:04;18.40;;;10.07;;
2061;SDS011;11070;51.336;12.340;2023-03-08T08:02:34;15.60;;;8.93;;
2061;SDS011;11070;51.336;12.340;2023-03-08T08:05:01;16.70;;;9.98;;
2061;SDS011;11070;51.336;12.340;2023-03-08T08:07:28;16.63;;;9.48;;
2061;SDS011;11070;51.336;12.340;2023-03-08T08:09:54;15.80;;;8.90;;
2061;SDS011;11070;51.336;12.340;2023-03-08T08:12:20;15.40;;;9.27;;
2061;SDS011;11070;51.336;12.340;2023-03-08T08:14:47;18.33;;;10.15;;
2061;SDS011;11070;51.336;12.340;2023-03-08T08:17:16;19.40;;;10.50;;
2061;SDS011;11070;51.336;12.340;2023-03-08T08:19:45;16.35;;;9.57;;
2061;SDS011;11070;51.336;12.340;2023-03-08T08:22:12;13.68;;;8.38;;
2061;SDS011;11070;51.336;12.340;2023-03-08T08:24:37;14.00;;;9.00;;
2061;SDS011;11070;51.336;12.340;2023-03-08T08:27:03;13.57;;;8.77;;
2061;SDS011;11070;51.336;12.340;2023-03-08T08:29:30;13.70;;;8.57;;
2061;SDS011;11070;51.336;12.340;2023-03-08T08:31:56;14.18;;;8.40;;
2061;SDS011;11070;51.336;12.340;2023-03-08T08:34:21;14.43;;;9.17;;
2061;SDS011;11070;51.336;12.340;2023-03-08T08:36:48;16.48;;;10.18;;
2061;SDS011;11070;51.336;12.340;2023-03-08T08:39:14;17.23;;;9.43;;
2061;SDS011;11070;51.336;12.340;2023-03-08T08:41:39;13.40;;;8.67;;
2061;SDS011;11070;51.336;12.340;2023-03-08T08:44:05;13.80;;;8.27;;
2061;SDS011;11070;51.336;12.340;2023-03-08T08:46:31;12.13;;;8.30;;
2061;SDS011;11070;51.336;12.340;2023-03-08T08:48:59;12.55;;;8.05;;
2061;SDS011;11070;51.336;12.340;2023-03-08T08:51:25;13.18;;;8.75;;
2061;SDS011;11070;51.336;12.340;2023-03-08T08:53:51;10.82;;;7.68;;
2061;SDS011;11070;51.336;12.340;2023-03-08T08:56:22;14.38;;;9.02;;
2061;SDS011;11070;51.336;12.340;2023-03-08T08:58:49;15.50;;;8.88;;
2061;SDS011;11070;51.336;12.340;2023-03-08T09:01:25;14.27;;;8.60;;
2061;SDS011;11070;51.336;12.340;2023-03-08T09:03:53;14.07;;;10.05;;
2061;SDS011;11070;51.336;12.340;2023-03-08T09:06:20;14.57;;;10.02;;
2061;SDS011;11070;51.336;12.340;2023-03-08T09:08:48;12.07;;;8.20;;
2061;SDS011;11070;51.336;12.340;2023-03-08T09:11:14;16.75;;;9.30;;
2061;SDS011;11070;51.336;12.340;2023-03-08T09:13:41;12.75;;;8.20;;
2061;SDS011;11070;51.336;12.340;2023-03-08T09:18:43;14.43;;;9.07;;
2061;SDS011;11070;51.336;12.340;2023-03-08T09:21:09;17.83;;;9.17;;
2061;SDS011;11070;51.336;12.340;2023-03-08T09:23:35;17.20;;;10.10;;
2061;SDS011;11070;51.336;12.340;2023-03-08T09:26:00;15.90;;;9.73;;
2061;SDS011;11070;51.336;12.340;2023-03-08T09:28:28;16.83;;;10.55;;
2061;SDS011;11070;51.336;12.340;2023-03-08T09:30:54;17.67;;;10.88;;
2061;SDS011;11070;51.336;12.340;2023-03-08T09:33:20;20.90;;;11.20;;
2061;SDS011;11070;51.336;12.340;2023-03-08T09:35:59;15.40;;;10.10;;
2061;SDS011;11070;51.336;12.340;2023-03-08T09:38:25;15.25;;;10.10;;
2061;SDS011;11070;51.336;12.340;2023-03-08T09:46:52;13.57;;;8.95;;
2061;SDS011;11070;51.336;12.340;2023-03-08T09:49:27;13.65;;;9.25;;
2061;SDS011;11070;51.336;12.340;2023-03-08T09:52:07;14.20;;;9.52;;
2061;SDS011;11070;51.336;12.340;2023-03-08T09:54:34;12.40;;;8.27;;
2061;SDS011;11070;51.336;12.340;2023-03-08T09:57:04;13.77;;;8.80;;
2061;SDS011;11070;51.336;12.340;2023-03-08T09:59:40;14.68;;;9.02;;
2061;SDS011;11070;51.336;12.340;2023-03-08T10:04:59;13.43;;;8.40;;
2061;SDS011;11070;51.336;12.340;2023-03-08T10:13:32;12.52;;;8.40;;
2061;SDS011;11070;51.336;12.340;2023-03-08T10:16:14;13.25;;;9.10;;
2061;SDS011;11070;51.336;12.340;2023-03-08T10:18:46;14.00;;;9.30;;
2061;SDS011;11070;51.336;12.340;2023-03-08T10:21:21;14.20;;;8.95;;
2061;SDS011;11070;51.336;12.340;2023-03-08T10:24:02;13.50;;;8.75;;
2061;SDS011;11070;51.336;12.340;2023-03-08T10:26:35;14.55;;;8.50;;
2061;SDS011;11070;51.336;12.340;2023-03-08T10:29:01;13.60;;;9.07;;
2061;SDS011;11070;51.336;12.340;2023-03-08T10:31:28;16.50;;;10.40;;
2061;SDS011;11070;51.336;12.340;2023-03-08T10:34:02;16.20;;;9.70;;
2061;SDS011;11070;51.336;12.340;2023-03-08T10:36:50;12.55;;;8.45;;
2061;SDS011;11070;51.336;12.340;2023-03-08T10:39:18;14.95;;;9.43;;
2061;SDS011;11070;51.336;12.340;2023-03-08T10:41:49;15.13;;;9.90;;
2061;SDS011;11070;51.336;12.340;2023-03-08T10:52:31;17.83;;;10.80;;
2061;SDS011;11070;51.336;12.340;2023-03-08T10:55:04;19.80;;;10.87;;
2061;SDS011;11070;51.336;12.340;2023-03-08T10:57:34;15.15;;;9.85;;
2061;SDS011;11070;51.336;12.340;2023-03-08T11:00:04;16.13;;;11.20;;
2061;SDS011;11070;51.336;12.340;2023-03-08T11:02:49;16.95;;;10.77;;
2061;SDS011;11070;51.336;12.340;2023-03-08T11:05:25;18.00;;;11.02;;
2061;SDS011;11070;51.336;12.340;2023-03-08T11:07:52;16.23;;;11.47;;
2061;SDS011;11070;51.336;12.340;2023-03-08T11:10:19;15.00;;;10.55;;
2061;SDS011;11070;51.336;12.340;2023-03-08T11:13:35;14.73;;;9.68;;
2061;SDS011;11070;51.336;12.340;2023-03-08T11:15:35;12.55;;;9.18;;
2061;SDS011;11070;51.336;12.340;2023-03-08T11:20:52;13.13;;;9.45;;
2061;SDS011;11070;51.336;12.340;2023-03-08T11:23:39;14.27;;;9.70;;
2061;SDS011;11070;51.336;12.340;2023-03-08T11:26:19;12.45;;;9.35;;
2061;SDS011;11070;51.336;12.340;2023-03-08T11:31:59;12.73;;;9.20;;
2061;SDS011;11070;51.336;12.340;2023-03-08T11:34:38;13.02;;;9.43;;
2061;SDS011;11070;51.336;12.340;2023-03-08T11:45:25;10.85;;;8.43;;
2061;SDS011;11070;51.336;12.340;2023-03-08T11:50:36;13.32;;;9.30;;
2061;SDS011;11070;51.336;12.340;2023-03-08T11:53:24;11.82;;;8.30;;
2061;SDS011;11070;51.336;12.340;2023-03-08T11:56:06;16.40;;;9.57;;
2061;SDS011;11070;51.336;12.340;2023-03-08T12:01:21;14.35;;;9.57;;
2061;SDS011;11070;51.336;12.340;2023-03-08T12:03:51;18.13;;;10.90;;
2061;SDS011;11070;51.336;12.340;2023-03-08T12:06:21;15.18;;;10.20;;
2061;SDS011;11070;51.336;12.340;2023-03-08T12:11:35;18.20;;;11.32;;
2061;SDS011;11070;51.336;12.340;2023-03-08T12:14:13;14.25;;;9.70;;
2061;SDS011;11070;51.336;12.340;2023-03-08T12:17:06;14.48;;;10.05;;
2061;SDS011;11070;51.336;12.340;2023-03-08T12:19:46;15.23;;;9.95;;
2061;SDS011;11070;51.336;12.340;2023-03-08T12:25:33;15.45;;;10.20;;
2061;SDS011;11070;51.336;12.340;2023-03-08T12:28:04;12.73;;;8.77;;
2061;SDS011;11070;51.336;12.340;2023-03-08T12:33:25;14.93;;;9.20;;
2061;SDS011;11070;51.336;12.340;2023-03-08T12:35:59;13.05;;;8.85;;
2061;SDS011;11070;51.336;12.340;2023-03-08T12:40:54;14.88;;;9.25;;
2061;SDS011;11070;51.336;12.340;2023-03-08T12:45:46;12.73;;;8.50;;
2061;SDS011;11070;51.336;12.340;2023-03-08T12:51:05;14.48;;;11.18;;
2061;SDS011;11070;51.336;12.340;2023-03-08T12:58:59;13.07;;;8.88;;
2061;SDS011;11070;51.336;12.340;2023-03-08T13:04:32;13.93;;;8.75;;
2061;SDS011;11070;51.336;12.340;2023-03-08T13:13:05;13.98;;;8.73;;
2061;SDS011;11070;51.336;12.340;2023-03-08T13:15:33;13.63;;;9.15;;
2061;SDS011;11070;51.336;12.340;2023-03-08T13:18:01;14.85;;;9.93;;
2061;SDS011;11070;51.336;12.340;2023-03-08T13:28:25;15.65;;;10.35;;
2061;SDS011;11070;51.336;12.340;2023-03-08T13:30:57;14.30;;;8.93;;
2061;SDS011;11070;51.336;12.340;2023-03-08T13:33:27;14.35;;;9.60;;
2061;SDS011;11070;51.336;12.340;2023-03-08T13:36:26;12.85;;;8.70;;
2061;SDS011;11070;51.336;12.340;2023-03-08T13:39:03;15.88;;;10.07;;
2061;SDS011;11070;51.336;12.340;2023-03-08T13:41:44;15.00;;;10.38;;
2061;SDS011;11070;51.336;12.340;2023-03-08T13:46:39;15.45;;;9.75;;
2061;SDS011;11070;51.336;12.340;2023-03-08T13:49:16;14.73;;;9.10;;
2061;SDS011;11070;51.336;12.340;2023-03-08T13:51:46;14.88;;;9.85;;
2061;SDS011;11070;51.336;12.340;2023-03-08T13:54:23;12.70;;;9.80;;
2061;SDS011;11070;51.336;12.340;2023-03-08T13:56:58;17.98;;;11.90;;
2061;SDS011;11070;51.336;12.340;2023-03-08T13:59:26;14.75;;;9.90;;
2061;SDS011;11070;51.336;12.340;2023-03-08T14:01:53;16.13;;;10.95;;
2061;SDS011;11070;51.336;12.340;2023-03-08T14:04:24;18.50;;;11.70;;
2061;SDS011;11070;51.336;12.340;2023-03-08T14:06:53;19.45;;;11.10;;
2061;SDS011;11070;51.336;12.340;2023-03-08T14:09:20;18.35;;;11.02;;
2061;SDS011;11070;51.336;12.340;2023-03-08T14:11:52;16.38;;;11.20;;
2061;SDS011;11070;51.336;12.340;2023-03-08T14:14:22;17.45;;;12.00;;
2061;SDS011;11070;51.336;12.340;2023-03-08T14:16:55;18.38;;;11.68;;
2061;SDS011;11070;51.336;12.340;2023-03-08T14:19:26;19.75;;;12.80;;
2061;SDS011;11070;51.336;12.340;2023-03-08T14:21:53;20.85;;;13.10;;
2061;SDS011;11070;51.336;12.340;2023-03-08T14:24:22;18.83;;;12.07;;
2061;SDS011;11070;51.336;12.340;2023-03-08T14:27:22;19.70;;;12.25;;
2061;SDS011;11070;51.336;12.340;2023-03-08T14:30:02;15.85;;;11.88;;
2061;SDS011;11070;51.336;12.340;2023-03-08T14:35:30;16.88;;;11.50;;
2061;SDS011;11070;51.336;12.340;2023-03-08T14:38:00;20.05;;;13.02;;
2061;SDS011;11070;51.336;12.340;2023-03-08T14:40:36;18.35;;;12.32;;
2061;SDS011;11070;51.336;12.340;2023-03-08T14:43:13;19.30;;;12.88;;
2061;SDS011;11070;51.336;12.340;2023-03-08T14:46:03;18.45;;;12.65;;
2061;SDS011;11070;51.336;12.340;2023-03-08T14:54:00;17.90;;;12.50;;
2061;SDS011;11070;51.336;12.340;2023-03-08T14:56:28;19.63;;;13.02;;
2061;SDS011;11070;51.336;12.340;2023-03-08T14:58:57;17.00;;;12.20;;
2061;SDS011;11070;51.336;12.340;2023-03-08T15:01:28;20.08;;;13.02;;
2061;SDS011;11070;51.336;12.340;2023-03-08T15:04:17;22.95;;;13.77;;
2061;SDS011;11070;51.336;12.340;2023-03-08T15:06:45;19.45;;;12.98;;
2061;SDS011;11070;51.336;12.340;2023-03-08T15:09:13;20.52;;;13.88;;
2061;SDS011;11070;51.336;12.340;2023-03-08T15:11:41;22.65;;;14.40;;
2061;SDS011;11070;51.336;12.340;2023-03-08T15:14:11;21.40;;;14.27;;
2061;SDS011;11070;51.336;12.340;2023-03-08T15:16:37;23.48;;;14.43;;
2061;SDS011;11070;51.336;12.340;2023-03-08T15:19:03;23.90;;;16.02;;
2061;SDS011;11070;51.336;12.340;2023-03-08T15:21:28;24.37;;;16.47;;
2061;SDS011;11070;51.336;12.340;2023-03-08T15:23:55;24.85;;;15.85;;
2061;SDS011;11070;51.336;12.340;2023-03-08T15:26:22;25.40;;;15.63;;
2061;SDS011;11070;51.336;12.340;2023-03-08T15:28:51;25.27;;;15.98;;
2061;SDS011;11070;51.336;12.340;2023-03-08T15:31:17;22.45;;;14.55;;
2061;SDS011;11070;51.336;12.340;2023-03-08T15:33:43;21.40;;;14.90;;
2061;SDS011;11070;51.336;12.340;2023-03-08T15:36:13;21.73;;;15.37;;
2061;SDS011;11070;51.336;12.340;2023-03-08T15:38:40;23.67;;;15.65;;
2061;SDS011;11070;51.336;12.340;2023-03-08T15:41:09;21.10;;;14.23;;
2061;SDS011;11070;51.336;12.340;2023-03-08T15:43:39;25.75;;;16.80;;
2061;SDS011;11070;51.336;12.340;2023-03-08T15:46:04;22.80;;;15.30;;
2061;SDS011;11070;51.336;12.340;2023-03-08T15:48:30;25.85;;;16.23;;
2061;SDS011;11070;51.336;12.340;2023-03-08T15:50:56;27.50;;;17.20;;
2061;SDS011;11070;51.336;12.340;2023-03-08T15:53:23;24.38;;;16.13;;
2061;SDS011;11070;51.336;12.340;2023-03-08T15:55:48;25.30;;;16.37;;
2061;SDS011;11070;51.336;12.340;2023-03-08T15:58:14;26.77;;;17.77;;
2061;SDS011;11070;51.336;12.340;2023-03-08T16:00:40;24.90;;;16.20;;
2061;SDS011;11070;51.336;12.340;2023-03-08T16:03:05;27.03;;;16.90;;
2061;SDS011;11070;51.336;12.340;2023-03-08T16:05:31;25.33;;;16.33;;
2061;SDS011;11070;51.336;12.340;2023-03-08T16:07:58;26.43;;;16.53;;
2061;SDS011;11070;51.336;12.340;2023-03-08T16:10:26;27.80;;;17.25;;
2061;SDS011;11070;51.336;12.340;2023-03-08T16:12:53;28.92;;;17.55;;
2061;SDS011;11070;51.336;12.340;2023-03-08T16:15:19;25.53;;;15.80;;
2061;SDS011;11070;51.336;12.340;2023-03-08T16:17:46;25.65;;;17.25;;
2061;SDS011;11070;51.336;12.340;2023-03-08T16:20:12;26.73;;;17.37;;